Heaton, North Carolina
Current Conditions -  °F | °C
As of 11:15 AM on Sunday 25 Jan 2015 (Local Time) from KTNB Reporting Station
Clear Clear  
Wind Chill: 43°   Ceiling: Unl
Heat Index: 43°   Visibility: 10mi
Dew Point: 24°   Wind: 3mph
Humidity: 47%   Direction: 220°SW
Pressure: 29.84"   Gusts: NA
Location:  36.1731°N, 81.9572°W
Report Text: KTNB 251615Z AUTO 22003KT 10SM CLR 06/M04 A2984 RMK AO2 T00621045
Loading
Personal Weather Stations






























Interactive Weather Map New forecast layout! Learn more

10-Day Weather Forecast

Advertisements
Track Severe Weather on mobile